Time;durP1;ratioP1;P1;durP2;ratioP2;P2;SDS_P1;SDS_P2;PMS_P1;PMS_P2;Temp;Humidity;BMP_temperature;BMP_pressure;BME280_temperature;BME280_humidity;BME280_pressure;Samples;Min_cycle;Max_cycle;Signal;HPM_P1;HPM_P2
2022/06/18 00:00:51;;;;;;;4.10;3.50;;;;;;;;;;104084;1297;22658;-28
2022/06/18 00:03:29;;;;;;;4.80;4.20;;;;;;;;;;104167;1297;22495;-28
2022/06/18 00:06:07;;;;;;;5.20;3.20;;;;;;;;;;104192;1297;22502;-31
2022/06/18 00:08:45;;;;;;;4.30;3.50;;;;;;;;;;104095;1297;22490;-27
2022/06/18 00:14:03;;;;;;;3.50;2.80;;;;;;;;;;104240;1297;22495;-28
2022/06/18 00:16:41;;;;;;;3.90;3.10;;;;;;;;;;103862;1297;22492;-24
2022/06/18 00:19:18;;;;;;;4.30;3.20;;;;;;;;;;104181;1297;22518;-28
2022/06/18 00:21:56;;;;;;;3.40;2.90;;;;;;;;;;104116;1297;22482;-27
2022/06/18 00:24:33;;;;;;;3.00;1.90;;;;;;;;;;104103;1297;22621;-28
2022/06/18 00:27:11;;;;;;;3.20;2.70;;;;;;;;;;104154;1297;22530;-25
2022/06/18 00:29:49;;;;;;;4.40;3.20;;;;;;;;;;104132;1297;22498;-28
2022/06/18 00:32:26;;;;;;;2.10;1.90;;;;;;;;;;104104;1297;22515;-29
2022/06/18 00:35:04;;;;;;;3.40;2.90;;;;;;;;;;104166;1297;22504;-24
2022/06/18 00:37:42;;;;;;;3.20;2.80;;;;;;;;;;104166;1297;22506;-25
2022/06/18 00:40:22;;;;;;;5.80;2.90;;;;;;;;;;104157;1297;22503;-27
2022/06/18 00:43:02;;;;;;;8.70;3.10;;;;;;;;;;104090;1297;22618;-27
2022/06/18 00:45:39;;;;;;;2.70;2.50;;;;;;;;;;104032;1297;22506;-24
2022/06/18 00:48:19;;;;;;;3.60;2.60;;;;;;;;;;104162;1297;22710;-28
2022/06/18 00:50:59;;;;;;;3.90;2.80;;;;;;;;;;104059;1297;24214;-25
2022/06/18 00:53:42;;;;;;;2.80;2.40;;;;;;;;;;103908;1297;22748;-28
2022/06/18 00:56:21;;;;;;;3.50;2.90;;;;;;;;;;104174;1297;22505;-27
2022/06/18 00:59:00;;;;;;;4.70;2.90;;;;;;;;;;104176;1297;23764;-30
2022/06/18 01:01:38;;;;;;;3.00;2.40;;;;;;;;;;104131;1297;22715;-24
2022/06/18 01:04:20;;;;;;;2.50;2.00;;;;;;;;;;104168;1297;22494;-30
2022/06/18 01:06:59;;;;;;;2.60;2.30;;;;;;;;;;104190;1297;22489;-30
2022/06/18 01:09:37;;;;;;;4.80;2.50;;;;;;;;;;104153;1297;22492;-29
2022/06/18 01:12:15;;;;;;;3.00;2.10;;;;;;;;;;104169;1297;22495;-29
2022/06/18 01:14:56;;;;;;;2.00;1.70;;;;;;;;;;104142;1297;22504;-29
2022/06/18 01:17:34;;;;;;;3.00;1.90;;;;;;;;;;104085;1297;22788;-25
2022/06/18 01:20:12;;;;;;;3.20;2.20;;;;;;;;;;104061;1297;22495;-24
2022/06/18 01:22:52;;;;;;;3.10;2.40;;;;;;;;;;104158;1297;22724;-28
2022/06/18 01:25:29;;;;;;;2.10;2.00;;;;;;;;;;104140;1297;22499;-25
2022/06/18 01:28:09;;;;;;;4.60;1.40;;;;;;;;;;104126;1297;22495;-25
2022/06/18 01:30:46;;;;;;;1.90;1.50;;;;;;;;;;104193;1297;22623;-24
2022/06/18 01:33:24;;;;;;;2.50;1.60;;;;;;;;;;104179;1297;22504;-28
2022/06/18 01:36:03;;;;;;;2.10;1.80;;;;;;;;;;104158;1297;22598;-28
2022/06/18 01:38:43;;;;;;;3.30;2.50;;;;;;;;;;104199;1297;22509;-29
2022/06/18 01:44:06;;;;;;;6.40;4.20;;;;;;;;;;104114;1297;22704;-25
2022/06/18 01:46:44;;;;;;;6.30;3.60;;;;;;;;;;104173;1297;22632;-25
2022/06/18 01:49:23;;;;;;;6.10;3.20;;;;;;;;;;104139;1297;22517;-24
2022/06/18 01:52:01;;;;;;;3.30;2.60;;;;;;;;;;104162;1297;23071;-29
2022/06/18 01:54:41;;;;;;;4.60;2.50;;;;;;;;;;104139;1297;23698;-24
2022/06/18 01:57:21;;;;;;;3.20;2.70;;;;;;;;;;104119;1297;22576;-25
2022/06/18 02:00:03;;;;;;;3.10;2.70;;;;;;;;;;104123;1297;22871;-23
2022/06/18 02:02:41;;;;;;;2.70;2.50;;;;;;;;;;104096;1297;24249;-30
2022/06/18 02:05:19;;;;;;;4.10;2.10;;;;;;;;;;104032;1297;22495;-24
2022/06/18 02:07:57;;;;;;;2.60;2.20;;;;;;;;;;104123;1297;22732;-30
2022/06/18 02:10:36;;;;;;;3.70;2.80;;;;;;;;;;104114;1297;22573;-30
2022/06/18 02:13:14;;;;;;;3.30;2.60;;;;;;;;;;104113;1297;22840;-30
2022/06/18 02:15:51;;;;;;;3.50;2.40;;;;;;;;;;104132;1297;22502;-30
2022/06/18 02:18:29;;;;;;;3.50;2.50;;;;;;;;;;104116;1297;22506;-25
2022/06/18 02:21:07;;;;;;;4.10;3.30;;;;;;;;;;104144;1297;22719;-29
2022/06/18 02:23:45;;;;;;;5.60;3.20;;;;;;;;;;104162;1297;22499;-25
2022/06/18 02:26:25;;;;;;;5.30;3.30;;;;;;;;;;104132;1297;22710;-28
2022/06/18 02:29:03;;;;;;;3.10;2.70;;;;;;;;;;104113;1297;22508;-25
2022/06/18 02:31:45;;;;;;;4.60;3.10;;;;;;;;;;104109;1297;22502;-25
2022/06/18 02:34:24;;;;;;;4.70;3.50;;;;;;;;;;104146;1297;24030;-29
2022/06/18 02:37:02;;;;;;;5.00;3.70;;;;;;;;;;104112;1297;22747;-29
2022/06/18 02:39:40;;;;;;;5.00;2.60;;;;;;;;;;104154;1297;23178;-25
2022/06/18 02:42:19;;;;;;;3.70;3.20;;;;;;;;;;104199;1297;22508;-29
2022/06/18 02:44:57;;;;;;;3.30;2.70;;;;;;;;;;104118;1297;22626;-25
2022/06/18 02:47:34;;;;;;;3.60;2.90;;;;;;;;;;104145;1297;22516;-28
2022/06/18 02:50:14;;;;;;;3.80;2.70;;;;;;;;;;104162;1297;22623;-31
2022/06/18 02:52:53;;;;;;;4.30;3.10;;;;;;;;;;104153;1297;22636;-30
2022/06/18 02:55:34;;;;;;;3.70;3.40;;;;;;;;;;104139;1297;22498;-29
2022/06/18 02:58:13;;;;;;;4.20;3.60;;;;;;;;;;104197;1297;22492;-30
2022/06/18 03:00:53;;;;;;;2.90;2.40;;;;;;;;;;104209;1297;23899;-31
2022/06/18 03:03:33;;;;;;;3.00;2.20;;;;;;;;;;104186;1297;24209;-31
2022/06/18 03:06:12;;;;;;;4.90;3.00;;;;;;;;;;104149;1295;22760;-26
2022/06/18 03:08:49;;;;;;;4.00;2.90;;;;;;;;;;104150;1297;22539;-30
2022/06/18 03:14:09;;;;;;;4.00;3.50;;;;;;;;;;104099;1297;22495;-23
2022/06/18 03:16:46;;;;;;;11.20;3.30;;;;;;;;;;104179;1296;22654;-29
2022/06/18 03:19:29;;;;;;;4.40;2.90;;;;;;;;;;104000;1298;22493;-25
2022/06/18 03:22:09;;;;;;;5.90;3.10;;;;;;;;;;104133;1297;23473;-24
2022/06/18 03:24:47;;;;;;;4.20;2.70;;;;;;;;;;104168;1297;22496;-24
2022/06/18 03:27:24;;;;;;;3.60;3.30;;;;;;;;;;104157;1297;22498;-28
2022/06/18 03:30:04;;;;;;;11.00;2.70;;;;;;;;;;104094;1297;22515;-25
2022/06/18 03:32:42;;;;;;;3.50;2.90;;;;;;;;;;104070;1300;22512;-24
2022/06/18 03:35:19;;;;;;;4.00;3.20;;;;;;;;;;104186;1297;22728;-29
2022/06/18 03:37:57;;;;;;;4.00;3.20;;;;;;;;;;104129;1297;24911;-29
2022/06/18 03:40:34;;;;;;;3.30;2.60;;;;;;;;;;104144;1297;22930;-24
2022/06/18 03:43:12;;;;;;;2.30;1.70;;;;;;;;;;104101;1297;22483;-24
2022/06/18 03:45:51;;;;;;;2.00;1.70;;;;;;;;;;104158;1297;22698;-24
2022/06/18 03:48:30;;;;;;;3.60;3.20;;;;;;;;;;104147;1297;22623;-28
2022/06/18 03:51:08;;;;;;;6.70;2.60;;;;;;;;;;104137;1297;22496;-29
2022/06/18 03:53:46;;;;;;;2.60;2.30;;;;;;;;;;104136;1297;22498;-25
2022/06/18 03:56:24;;;;;;;3.50;2.20;;;;;;;;;;104161;1297;22503;-28
2022/06/18 03:59:02;;;;;;;5.20;3.00;;;;;;;;;;104037;1297;22845;-28
2022/06/18 04:01:40;;;;;;;6.20;2.90;;;;;;;;;;104168;1297;22648;-27
2022/06/18 04:04:18;;;;;;;4.70;2.50;;;;;;;;;;104123;1297;22619;-25
2022/06/18 04:06:55;;;;;;;3.70;2.70;;;;;;;;;;104178;1297;22627;-28
2022/06/18 04:09:33;;;;;;;6.60;3.90;;;;;;;;;;104179;1297;22868;-25
2022/06/18 04:12:10;;;;;;;3.30;2.80;;;;;;;;;;104130;1297;22503;-25
2022/06/18 04:14:48;;;;;;;2.70;2.30;;;;;;;;;;104173;1297;22492;-30
2022/06/18 04:17:25;;;;;;;3.50;2.30;;;;;;;;;;103744;1297;287556;-27
2022/06/18 04:20:03;;;;;;;2.40;2.20;;;;;;;;;;104019;1300;22492;-30
2022/06/18 04:22:41;;;;;;;4.10;2.30;;;;;;;;;;104111;1298;22508;-25
2022/06/18 04:25:18;;;;;;;2.80;2.30;;;;;;;;;;104109;1297;22753;-25
2022/06/18 04:27:57;;;;;;;2.70;1.60;;;;;;;;;;104115;1297;22599;-30
2022/06/18 04:30:34;;;;;;;3.90;2.60;;;;;;;;;;104135;1297;22505;-30
2022/06/18 04:33:12;;;;;;;3.30;1.80;;;;;;;;;;104098;1297;22602;-30
2022/06/18 04:35:50;;;;;;;4.00;2.20;;;;;;;;;;104133;1297;22815;-28
2022/06/18 04:38:28;;;;;;;2.50;2.20;;;;;;;;;;104134;1297;22512;-30
2022/06/18 04:41:05;;;;;;;1.90;1.70;;;;;;;;;;104096;1297;22499;-28
2022/06/18 04:43:43;;;;;;;3.00;2.00;;;;;;;;;;104140;1297;22705;-28
2022/06/18 04:46:20;;;;;;;3.60;2.20;;;;;;;;;;104136;1297;22716;-27
2022/06/18 04:48:58;;;;;;;3.30;2.30;;;;;;;;;;104178;1297;22492;-30
2022/06/18 04:51:35;;;;;;;6.90;2.00;;;;;;;;;;104235;1297;22483;-30
2022/06/18 04:54:13;;;;;;;3.60;3.10;;;;;;;;;;104163;1297;23578;-26
2022/06/18 04:56:50;;;;;;;3.10;1.90;;;;;;;;;;104137;1297;22728;-25
2022/06/18 04:59:28;;;;;;;2.80;2.50;;;;;;;;;;104151;1297;22498;-27
2022/06/18 05:02:06;;;;;;;6.20;2.50;;;;;;;;;;104111;1297;23592;-24
2022/06/18 05:04:44;;;;;;;3.30;2.60;;;;;;;;;;104109;1297;22811;-25
2022/06/18 05:07:21;;;;;;;7.10;2.50;;;;;;;;;;104111;1297;22486;-30
2022/06/18 05:09:59;;;;;;;2.00;1.50;;;;;;;;;;104122;1297;22492;-30
2022/06/18 05:12:36;;;;;;;2.40;1.90;;;;;;;;;;104153;1297;22509;-30
2022/06/18 05:15:14;;;;;;;2.80;1.90;;;;;;;;;;104136;1297;22865;-27
2022/06/18 05:17:51;;;;;;;2.70;2.00;;;;;;;;;;104169;1297;22496;-30
2022/06/18 05:20:29;;;;;;;4.70;2.40;;;;;;;;;;104078;1297;22920;-31
2022/06/18 05:23:10;;;;;;;4.50;2.00;;;;;;;;;;104069;1297;22494;-27
2022/06/18 05:25:48;;;;;;;2.20;1.50;;;;;;;;;;104187;1297;22844;-24
2022/06/18 05:28:26;;;;;;;4.10;2.00;;;;;;;;;;104115;1297;23699;-27
2022/06/18 05:31:03;;;;;;;2.10;1.30;;;;;;;;;;104155;1297;22760;-25
2022/06/18 05:33:41;;;;;;;2.40;1.50;;;;;;;;;;104013;1297;22601;-27
2022/06/18 05:36:19;;;;;;;4.00;1.60;;;;;;;;;;104169;1297;22498;-30
2022/06/18 05:38:57;;;;;;;2.60;1.50;;;;;;;;;;104107;1297;23958;-31
2022/06/18 05:41:35;;;;;;;2.40;1.30;;;;;;;;;;104155;1297;22847;-31
2022/06/18 05:44:12;;;;;;;2.10;1.30;;;;;;;;;;104121;1297;22991;-30
2022/06/18 05:46:50;;;;;;;1.20;1.00;;;;;;;;;;104133;1297;22510;-28
2022/06/18 05:49:27;;;;;;;1.10;0.80;;;;;;;;;;104125;1297;22619;-26
2022/06/18 05:52:05;;;;;;;3.70;1.20;;;;;;;;;;104228;1297;22705;-25
2022/06/18 05:54:43;;;;;;;3.40;0.80;;;;;;;;;;104153;1298;23545;-25
2022/06/18 05:57:20;;;;;;;3.70;1.20;;;;;;;;;;104144;1297;22509;-27
2022/06/18 05:59:58;;;;;;;2.80;1.10;;;;;;;;;;104133;1297;22501;-27
2022/06/18 06:02:35;;;;;;;1.20;0.90;;;;;;;;;;104156;1297;22522;-30
2022/06/18 06:05:13;;;;;;;2.00;1.20;;;;;;;;;;104160;1297;22728;-30
2022/06/18 06:07:51;;;;;;;4.30;1.60;;;;;;;;;;104055;1300;22479;-26
2022/06/18 06:13:10;;;;;;;1.60;1.00;;;;;;;;;;104153;1297;22762;-27
2022/06/18 06:15:48;;;;;;;1.40;1.20;;;;;;;;;;104139;1297;22706;-25
2022/06/18 06:18:26;;;;;;;8.00;1.40;;;;;;;;;;104177;1297;22852;-24
2022/06/18 06:21:03;;;;;;;6.20;1.00;;;;;;;;;;104191;1297;22856;-28
2022/06/18 06:23:41;;;;;;;4.80;1.30;;;;;;;;;;104157;1297;25247;-25
2022/06/18 06:26:19;;;;;;;4.00;1.60;;;;;;;;;;104114;1297;23017;-28
2022/06/18 06:28:59;;;;;;;1.70;0.80;;;;;;;;;;104078;1297;22853;-25
2022/06/18 06:31:36;;;;;;;17.00;1.40;;;;;;;;;;104154;1297;22604;-28
2022/06/18 06:34:14;;;;;;;1.00;0.70;;;;;;;;;;104146;1297;22635;-29
2022/06/18 06:36:51;;;;;;;2.10;1.10;;;;;;;;;;104155;1297;22512;-25
2022/06/18 06:39:29;;;;;;;2.20;1.20;;;;;;;;;;104137;1297;22496;-24
2022/06/18 06:42:08;;;;;;;2.90;1.10;;;;;;;;;;104174;1297;22499;-28
2022/06/18 06:44:46;;;;;;;2.70;1.70;;;;;;;;;;104147;1297;22757;-28
2022/06/18 06:47:23;;;;;;;2.30;1.20;;;;;;;;;;104153;1297;22498;-28
2022/06/18 06:50:01;;;;;;;1.80;1.10;;;;;;;;;;104202;1297;22926;-28
2022/06/18 06:52:38;;;;;;;1.90;1.30;;;;;;;;;;104145;1297;22495;-24
2022/06/18 06:57:59;;;;;;;4.20;0.80;;;;;;;;;;104123;1302;22757;-28
2022/06/18 07:00:37;;;;;;;1.80;0.80;;;;;;;;;;104142;1297;22672;-24
2022/06/18 07:03:16;;;;;;;0.90;0.70;;;;;;;;;;103801;1299;22496;-25
2022/06/18 07:05:54;;;;;;;2.00;0.90;;;;;;;;;;103893;1299;22490;-28
2022/06/18 07:08:32;;;;;;;1.00;0.90;;;;;;;;;;103883;1302;22848;-28
2022/06/18 07:11:10;;;;;;;3.30;0.80;;;;;;;;;;103999;1299;22627;-28
2022/06/18 07:13:47;;;;;;;5.40;0.90;;;;;;;;;;103872;1299;24203;-28
2022/06/18 07:16:25;;;;;;;1.50;0.60;;;;;;;;;;103915;1299;23100;-25
2022/06/18 07:19:02;;;;;;;6.90;0.80;;;;;;;;;;103910;1299;25391;-28
2022/06/18 07:21:39;;;;;;;1.00;0.90;;;;;;;;;;103881;1299;22521;-28
2022/06/18 07:24:17;;;;;;;1.00;0.90;;;;;;;;;;103938;1299;22512;-24
2022/06/18 07:26:54;;;;;;;1.60;0.80;;;;;;;;;;103946;1302;22502;-24
2022/06/18 07:29:32;;;;;;;5.90;0.60;;;;;;;;;;103799;1302;22889;-28
2022/06/18 07:32:11;;;;;;;4.90;0.80;;;;;;;;;;103926;1302;22511;-28
2022/06/18 07:34:49;;;;;;;1.10;0.70;;;;;;;;;;103954;1302;22877;-28
2022/06/18 07:37:28;;;;;;;2.20;0.60;;;;;;;;;;103845;1299;22872;-28
2022/06/18 07:40:05;;;;;;;1.40;0.70;;;;;;;;;;103869;1302;22533;-25
2022/06/18 07:42:44;;;;;;;2.90;1.60;;;;;;;;;;103914;1299;22506;-25
2022/06/18 07:45:22;;;;;;;6.00;0.60;;;;;;;;;;103787;1302;22600;-28
2022/06/18 07:47:59;;;;;;;1.60;0.80;;;;;;;;;;103912;1302;23894;-23
2022/06/18 07:50:37;;;;;;;3.00;0.80;;;;;;;;;;103941;1302;22499;-28
2022/06/18 07:53:15;;;;;;;2.20;0.70;;;;;;;;;;103935;1299;22511;-27
2022/06/18 07:55:54;;;;;;;1.00;0.50;;;;;;;;;;103899;1302;22517;-27
2022/06/18 07:58:32;;;;;;;0.50;0.30;;;;;;;;;;103757;1302;22494;-27
2022/06/18 08:01:09;;;;;;;0.70;0.50;;;;;;;;;;103896;1301;23826;-30
2022/06/18 08:03:47;;;;;;;0.70;0.70;;;;;;;;;;103910;1300;22483;-24
2022/06/18 08:06:25;;;;;;;0.70;0.60;;;;;;;;;;104084;1297;22492;-27
2022/06/18 08:09:03;;;;;;;0.80;0.70;;;;;;;;;;104072;1297;22637;-24
2022/06/18 08:11:40;;;;;;;2.60;0.60;;;;;;;;;;104124;1295;22625;-24
2022/06/18 08:14:17;;;;;;;0.50;0.40;;;;;;;;;;104118;1297;23728;-29
2022/06/18 08:16:55;;;;;;;0.80;0.50;;;;;;;;;;104125;1302;22625;-29
2022/06/18 08:19:33;;;;;;;2.60;0.70;;;;;;;;;;104177;1297;24225;-25
2022/06/18 08:22:10;;;;;;;0.90;0.60;;;;;;;;;;104111;1302;22837;-29
2022/06/18 08:24:48;;;;;;;0.50;0.40;;;;;;;;;;104093;1302;22512;-25
2022/06/18 08:27:25;;;;;;;1.00;0.70;;;;;;;;;;104198;1297;23533;-28
2022/06/18 08:30:03;;;;;;;3.20;0.50;;;;;;;;;;104149;1297;22503;-25
2022/06/18 08:32:41;;;;;;;2.20;0.60;;;;;;;;;;104215;1301;22645;-28
2022/06/18 08:35:18;;;;;;;1.10;0.60;;;;;;;;;;104113;1297;22501;-30
2022/06/18 08:37:56;;;;;;;0.80;0.70;;;;;;;;;;103956;1300;22639;-26
2022/06/18 08:40:45;;;;;;;0.70;0.50;;;;;;;;;;104060;1300;22508;-24
2022/06/18 08:43:32;;;;;;;0.90;0.60;;;;;;;;;;104069;1298;22729;-24
2022/06/18 08:46:12;;;;;;;2.30;0.50;;;;;;;;;;104191;1302;22512;-28
2022/06/18 08:48:53;;;;;;;0.40;0.40;;;;;;;;;;104227;1302;22511;-28
2022/06/18 08:51:31;;;;;;;4.50;0.60;;;;;;;;;;104180;1302;22499;-28
2022/06/18 08:54:13;;;;;;;0.70;0.30;;;;;;;;;;104159;1303;22518;-28
2022/06/18 08:56:54;;;;;;;0.60;0.50;;;;;;;;;;104205;1297;23694;-28
2022/06/18 08:59:36;;;;;;;0.60;0.50;;;;;;;;;;104169;1303;22502;-28
2022/06/18 09:02:18;;;;;;;0.30;0.30;;;;;;;;;;104142;1297;22734;-25
2022/06/18 09:04:56;;;;;;;0.70;0.50;;;;;;;;;;104160;1303;22722;-27
2022/06/18 09:07:37;;;;;;;1.30;0.30;;;;;;;;;;104000;1300;22599;-25
2022/06/18 09:10:18;;;;;;;10.50;0.50;;;;;;;;;;104169;1302;22724;-24
2022/06/18 09:12:57;;;;;;;1.40;0.60;;;;;;;;;;104233;1300;22731;-26
2022/06/18 09:15:36;;;;;;;1.60;0.60;;;;;;;;;;104037;1302;22493;-27
2022/06/18 09:18:17;;;;;;;1.50;0.60;;;;;;;;;;104155;1297;22509;-29
2022/06/18 09:20:55;;;;;;;0.90;0.60;;;;;;;;;;104165;1297;22504;-24
2022/06/18 09:23:35;;;;;;;1.30;0.50;;;;;;;;;;104180;1302;22502;-24
2022/06/18 09:26:15;;;;;;;0.90;0.60;;;;;;;;;;104192;1302;22504;-27
2022/06/18 09:28:55;;;;;;;2.10;0.40;;;;;;;;;;104018;1300;23564;-26
2022/06/18 09:31:35;;;;;;;0.20;0.20;;;;;;;;;;104212;1302;22493;-26
2022/06/18 09:34:23;;;;;;;0.30;0.20;;;;;;;;;;104080;1301;22619;-29
2022/06/18 09:37:03;;;;;;;1.70;0.50;;;;;;;;;;104090;1302;22503;-26
2022/06/18 09:39:42;;;;;;;0.60;0.40;;;;;;;;;;104074;1297;22677;-23
2022/06/18 09:42:21;;;;;;;1.40;0.30;;;;;;;;;;103986;1300;25041;-29
2022/06/18 09:45:01;;;;;;;1.30;0.50;;;;;;;;;;104135;1303;22760;-26
2022/06/18 09:47:41;;;;;;;0.50;0.40;;;;;;;;;;104128;1302;23845;-26
2022/06/18 09:50:21;;;;;;;2.80;0.50;;;;;;;;;;104152;1301;22506;-30
2022/06/18 09:53:01;;;;;;;5.90;0.50;;;;;;;;;;104121;1298;22742;-30
2022/06/18 09:55:41;;;;;;;3.40;0.40;;;;;;;;;;104188;1302;22630;-29
2022/06/18 09:58:21;;;;;;;0.50;0.40;;;;;;;;;;104180;1302;22507;-24
2022/06/18 10:00:58;;;;;;;0.50;0.40;;;;;;;;;;104193;1297;24141;-29
2022/06/18 10:09:02;;;;;;;1.10;0.40;;;;;;;;;;104014;1299;23885;-24
2022/06/18 10:11:39;;;;;;;1.60;0.40;;;;;;;;;;104203;1302;22518;-29
2022/06/18 10:14:19;;;;;;;0.80;0.20;;;;;;;;;;103991;1299;22501;-29
2022/06/18 10:17:16;;;;;;;0.90;0.50;;;;;;;;;;103972;1300;22846;-29
2022/06/18 10:20:00;;;;;;;0.40;0.40;;;;;;;;;;104004;1299;22639;-29
2022/06/18 10:22:42;;;;;;;0.60;0.50;;;;;;;;;;104144;1299;23851;-25
2022/06/18 10:25:22;;;;;;;1.30;0.40;;;;;;;;;;104079;1300;22631;-24
2022/06/18 10:28:01;;;;;;;3.40;0.50;;;;;;;;;;104048;1299;22497;-28
2022/06/18 10:30:43;;;;;;;2.00;0.50;;;;;;;;;;104018;1299;22626;-28
2022/06/18 10:33:25;;;;;;;3.00;0.50;;;;;;;;;;104075;1300;22847;-28
2022/06/18 10:36:03;;;;;;;0.20;0.20;;;;;;;;;;104080;1302;22630;-25
2022/06/18 10:38:44;;;;;;;0.70;0.30;;;;;;;;;;104078;1301;22519;-24
2022/06/18 10:41:24;;;;;;;0.90;0.50;;;;;;;;;;104079;1299;22731;-24
2022/06/18 10:44:05;;;;;;;1.30;0.50;;;;;;;;;;104086;1299;22505;-28
2022/06/18 10:46:42;;;;;;;2.60;0.30;;;;;;;;;;104079;1299;22700;-28
2022/06/18 10:49:23;;;;;;;0.60;0.20;;;;;;;;;;104070;1301;22520;-28
2022/06/18 10:52:01;;;;;;;0.50;0.50;;;;;;;;;;104146;1299;22500;-28
2022/06/18 10:54:38;;;;;;;0.30;0.30;;;;;;;;;;104002;1299;22765;-24
2022/06/18 10:57:19;;;;;;;0.80;0.40;;;;;;;;;;103981;1299;22517;-24
2022/06/18 11:00:06;;;;;;;1.50;0.80;;;;;;;;;;104127;1299;22631;-25
2022/06/18 11:02:44;;;;;;;0.30;0.30;;;;;;;;;;104031;1299;22508;-28
2022/06/18 11:05:24;;;;;;;1.00;0.40;;;;;;;;;;104053;1299;22505;-25
2022/06/18 11:08:02;;;;;;;0.50;0.30;;;;;;;;;;104092;1299;23088;-25
2022/06/18 11:10:43;;;;;;;0.50;0.20;;;;;;;;;;104038;1299;22729;-28
2022/06/18 11:13:26;;;;;;;0.40;0.40;;;;;;;;;;104115;1299;22491;-24
2022/06/18 11:16:03;;;;;;;0.70;0.60;;;;;;;;;;104054;1299;22509;-24
2022/06/18 11:18:44;;;;;;;0.80;0.50;;;;;;;;;;104002;1300;22502;-24
2022/06/18 11:21:23;;;;;;;0.80;0.40;;;;;;;;;;104145;1299;23558;-24
2022/06/18 11:24:02;;;;;;;3.50;0.30;;;;;;;;;;104077;1300;22665;-28
2022/06/18 11:26:41;;;;;;;0.30;0.30;;;;;;;;;;104084;1300;22605;-24
2022/06/18 11:29:20;;;;;;;0.40;0.20;;;;;;;;;;103970;1297;22838;-28
2022/06/18 11:31:58;;;;;;;0.30;0.30;;;;;;;;;;104035;1299;22665;-28
2022/06/18 11:34:36;;;;;;;1.10;0.30;;;;;;;;;;104069;1299;22500;-23
2022/06/18 11:37:17;;;;;;;1.00;0.30;;;;;;;;;;104068;1299;22528;-28
2022/06/18 11:39:58;;;;;;;0.30;0.30;;;;;;;;;;104135;1299;22736;-24
2022/06/18 11:42:47;;;;;;;0.60;0.30;;;;;;;;;;104139;1300;24300;-28
2022/06/18 11:45:25;;;;;;;1.70;0.60;;;;;;;;;;103971;1299;23521;-28
2022/06/18 11:48:10;;;;;;;0.50;0.50;;;;;;;;;;104063;1299;22629;-24
2022/06/18 11:50:51;;;;;;;0.70;0.20;;;;;;;;;;104058;1299;22527;-28
2022/06/18 11:53:31;;;;;;;0.30;0.30;;;;;;;;;;104095;1299;22872;-28
2022/06/18 11:56:15;;;;;;;0.40;0.40;;;;;;;;;;104099;1299;22734;-24
2022/06/18 11:58:56;;;;;;;0.80;0.50;;;;;;;;;;104025;1299;22603;-24
2022/06/18 12:01:35;;;;;;;0.50;0.40;;;;;;;;;;104104;1299;22504;-24
2022/06/18 12:04:15;;;;;;;1.00;0.30;;;;;;;;;;104111;1297;24225;-28
2022/06/18 12:06:57;;;;;;;0.40;0.30;;;;;;;;;;104123;1297;23084;-28
2022/06/18 12:09:35;;;;;;;0.50;0.30;;;;;;;;;;104080;1300;22874;-28
2022/06/18 12:12:16;;;;;;;0.30;0.30;;;;;;;;;;104151;1297;22512;-26
2022/06/18 12:14:57;;;;;;;1.40;1.00;;;;;;;;;;104194;1297;25216;-24
2022/06/18 12:17:47;;;;;;;0.40;0.30;;;;;;;;;;103741;1297;439830;-28
2022/06/18 12:20:36;;;;;;;3.80;0.40;;;;;;;;;;104115;1297;23701;-25
2022/06/18 12:23:26;;;;;;;0.20;0.20;;;;;;;;;;104179;1297;22625;-25
2022/06/18 12:26:16;;;;;;;2.00;0.30;;;;;;;;;;104211;1297;24894;-28
2022/06/18 12:29:03;;;;;;;0.20;0.20;;;;;;;;;;104050;1300;22515;-25
2022/06/18 12:31:44;;;;;;;1.60;0.20;;;;;;;;;;104215;1297;22506;-25
2022/06/18 12:34:24;;;;;;;0.80;0.10;;;;;;;;;;104180;1297;22505;-28
2022/06/18 12:37:02;;;;;;;0.60;0.20;;;;;;;;;;104174;1297;22493;-25
2022/06/18 12:39:43;;;;;;;0.30;0.30;;;;;;;;;;104210;1297;22505;-24
2022/06/18 12:42:22;;;;;;;0.20;0.20;;;;;;;;;;104178;1297;22525;-25
2022/06/18 12:45:05;;;;;;;0.40;0.30;;;;;;;;;;104176;1297;22518;-28
2022/06/18 12:47:46;;;;;;;0.30;0.30;;;;;;;;;;104191;1298;22702;-24
2022/06/18 12:50:27;;;;;;;0.80;0.60;;;;;;;;;;104128;1297;22717;-24
2022/06/18 12:53:09;;;;;;;0.30;0.30;;;;;;;;;;104174;1297;22508;-28
2022/06/18 12:55:47;;;;;;;0.50;0.20;;;;;;;;;;104167;1297;22510;-28
2022/06/18 12:58:28;;;;;;;1.60;0.50;;;;;;;;;;104094;1297;24233;-28
2022/06/18 13:01:07;;;;;;;1.80;0.30;;;;;;;;;;104190;1297;22514;-29
2022/06/18 13:03:47;;;;;;;1.80;0.60;;;;;;;;;;104128;1297;22496;-25
2022/06/18 13:06:24;;;;;;;2.40;0.30;;;;;;;;;;104131;1297;22622;-28
2022/06/18 13:09:05;;;;;;;4.20;0.20;;;;;;;;;;104034;1297;22496;-24
2022/06/18 13:11:47;;;;;;;1.00;0.20;;;;;;;;;;104097;1300;22722;-24
2022/06/18 13:14:28;;;;;;;0.80;0.30;;;;;;;;;;104188;1297;22766;-24
2022/06/18 13:17:07;;;;;;;0.50;0.30;;;;;;;;;;104165;1297;22495;-25
2022/06/18 13:19:46;;;;;;;2.50;0.20;;;;;;;;;;104184;1297;22515;-24
2022/06/18 13:22:23;;;;;;;0.40;0.20;;;;;;;;;;104210;1297;22502;-27
2022/06/18 13:30:29;;;;;;;0.60;0.30;;;;;;;;;;104164;1297;22510;-28
2022/06/18 13:33:08;;;;;;;0.10;0.10;;;;;;;;;;104129;1297;22872;-28
2022/06/18 13:35:47;;;;;;;0.60;0.30;;;;;;;;;;104212;1297;22929;-28
2022/06/18 13:38:24;;;;;;;0.40;0.20;;;;;;;;;;104007;1297;22496;-24
2022/06/18 13:41:05;;;;;;;0.80;0.30;;;;;;;;;;104175;1297;22731;-28
2022/06/18 13:43:43;;;;;;;0.80;0.30;;;;;;;;;;104203;1297;22888;-28
2022/06/18 13:46:32;;;;;;;0.20;0.20;;;;;;;;;;104091;1297;24272;-24
2022/06/18 13:49:18;;;;;;;0.30;0.30;;;;;;;;;;104156;1297;22641;-28
2022/06/18 13:51:56;;;;;;;0.50;0.50;;;;;;;;;;104145;1297;22502;-23
2022/06/18 13:54:37;;;;;;;1.10;0.30;;;;;;;;;;104117;1297;25018;-24
2022/06/18 13:57:15;;;;;;;0.10;0.10;;;;;;;;;;104205;1297;22500;-24
2022/06/18 13:59:54;;;;;;;0.30;0.20;;;;;;;;;;104152;1297;22636;-28
2022/06/18 14:02:35;;;;;;;1.10;0.40;;;;;;;;;;104133;1297;22615;-28
2022/06/18 14:05:13;;;;;;;1.50;0.30;;;;;;;;;;104164;1297;22496;-25
2022/06/18 14:07:51;;;;;;;1.70;0.40;;;;;;;;;;104177;1297;22508;-30
2022/06/18 14:10:29;;;;;;;6.30;0.20;;;;;;;;;;104193;1297;22638;-28
2022/06/18 14:13:08;;;;;;;0.50;0.30;;;;;;;;;;104139;1297;22514;-28
2022/06/18 14:15:49;;;;;;;1.00;0.40;;;;;;;;;;104168;1297;22766;-28
2022/06/18 14:18:27;;;;;;;0.20;0.20;;;;;;;;;;104162;1297;22506;-24
2022/06/18 14:21:05;;;;;;;1.00;0.40;;;;;;;;;;104007;1297;22487;-28
2022/06/18 14:23:43;;;;;;;0.90;0.30;;;;;;;;;;104098;1297;22499;-25
2022/06/18 14:26:21;;;;;;;0.30;0.20;;;;;;;;;;104139;1297;22505;-28
2022/06/18 14:28:59;;;;;;;0.60;0.10;;;;;;;;;;104131;1297;23957;-26
2022/06/18 14:31:39;;;;;;;0.50;0.20;;;;;;;;;;104139;1297;22622;-25
2022/06/18 14:34:20;;;;;;;0.40;0.30;;;;;;;;;;104170;1297;22496;-24
2022/06/18 14:37:01;;;;;;;0.20;0.20;;;;;;;;;;104125;1297;22482;-24
2022/06/18 14:39:44;;;;;;;0.50;0.30;;;;;;;;;;104223;1297;22502;-24
2022/06/18 14:42:41;;;;;;;0.40;0.20;;;;;;;;;;104213;1297;25242;-28
2022/06/18 14:45:31;;;;;;;0.30;0.20;;;;;;;;;;104107;1297;22782;-24
2022/06/18 14:48:20;;;;;;;0.60;0.30;;;;;;;;;;104077;1300;22870;-24
2022/06/18 14:51:10;;;;;;;0.30;0.30;;;;;;;;;;104111;1297;22499;-28
2022/06/18 14:54:07;;;;;;;0.20;0.10;;;;;;;;;;104182;1297;22831;-28
2022/06/18 14:56:48;;;;;;;1.20;0.30;;;;;;;;;;104173;1297;22495;-27
2022/06/18 14:59:34;;;;;;;0.70;0.40;;;;;;;;;;104188;1297;22492;-24
2022/06/18 15:02:11;;;;;;;5.60;0.30;;;;;;;;;;104148;1296;22495;-24
2022/06/18 15:04:49;;;;;;;1.60;0.40;;;;;;;;;;104049;1300;22605;-24
2022/06/18 15:07:28;;;;;;;0.30;0.30;;;;;;;;;;104081;1297;22492;-28
2022/06/18 15:10:07;;;;;;;3.60;0.10;;;;;;;;;;104092;1297;23550;-28
2022/06/18 15:12:47;;;;;;;0.80;0.20;;;;;;;;;;104161;1297;22531;-24
2022/06/18 15:15:32;;;;;;;0.40;0.40;;;;;;;;;;104147;1297;22510;-28
2022/06/18 15:18:25;;;;;;;0.80;0.50;;;;;;;;;;104046;1298;24281;-28
2022/06/18 15:21:15;;;;;;;2.30;0.30;;;;;;;;;;104146;1297;23697;-28
2022/06/18 15:24:00;;;;;;;0.50;0.30;;;;;;;;;;104205;1297;24191;-28
2022/06/18 15:26:40;;;;;;;2.70;0.30;;;;;;;;;;104168;1297;22617;-28
2022/06/18 15:29:20;;;;;;;0.60;0.40;;;;;;;;;;104164;1297;22620;-24
2022/06/18 15:32:01;;;;;;;0.70;0.30;;;;;;;;;;104183;1297;22502;-27
2022/06/18 15:34:38;;;;;;;0.70;0.30;;;;;;;;;;104203;1297;22837;-28
2022/06/18 15:37:17;;;;;;;0.30;0.30;;;;;;;;;;104132;1297;22512;-27
2022/06/18 15:39:57;;;;;;;1.00;0.50;;;;;;;;;;104145;1297;22493;-24
2022/06/18 15:42:36;;;;;;;4.10;0.40;;;;;;;;;;104217;1297;22843;-27
2022/06/18 15:45:16;;;;;;;1.00;0.20;;;;;;;;;;104098;1298;22926;-27
2022/06/18 15:47:56;;;;;;;2.00;0.40;;;;;;;;;;103986;1300;22854;-27
2022/06/18 15:50:36;;;;;;;4.40;0.40;;;;;;;;;;104163;1297;22511;-30
2022/06/18 15:53:17;;;;;;;1.10;0.40;;;;;;;;;;104181;1297;22499;-26
2022/06/18 15:55:56;;;;;;;0.70;0.50;;;;;;;;;;104179;1296;22515;-24
2022/06/18 15:58:34;;;;;;;0.20;0.20;;;;;;;;;;104165;1297;22606;-24
2022/06/18 16:01:11;;;;;;;0.60;0.40;;;;;;;;;;104112;1297;22506;-24
2022/06/18 16:03:49;;;;;;;3.90;0.20;;;;;;;;;;104170;1297;22632;-27